createdAt,value
2022-10-31T00:02:21.494Z,96781.84
2022-10-31T00:04:55.745Z,96778.06
2022-10-31T00:07:29.123Z,96782.16
2022-10-31T00:10:02.028Z,96777.16
2022-10-31T00:12:36.430Z,96776.38
2022-10-31T00:15:09.744Z,96778.56
2022-10-31T00:17:43.015Z,96774.31
2022-10-31T00:20:17.540Z,96763.94
2022-10-31T00:22:50.514Z,96772.28
2022-10-31T00:25:23.453Z,96774.03
2022-10-31T00:27:57.263Z,96770.09
2022-10-31T00:30:31.840Z,96774.66
2022-10-31T00:33:06.206Z,96770.72
2022-10-31T00:35:40.498Z,96763.03
2022-10-31T00:38:13.361Z,96764.78
2022-10-31T00:40:46.181Z,96767.75
2022-10-31T00:43:19.045Z,96770.00
2022-10-31T00:45:52.188Z,96771.72
2022-10-31T00:48:25.193Z,96764.31
2022-10-31T00:50:59.638Z,96767.66
2022-10-31T00:53:35.272Z,96766.41
2022-10-31T00:56:08.889Z,96776.63
2022-10-31T00:58:41.743Z,96766.56
2022-10-31T01:01:14.736Z,96775.97
2022-10-31T01:03:47.975Z,96771.25
2022-10-31T01:06:22.404Z,96776.13
2022-10-31T01:08:55.439Z,96774.09
2022-10-31T01:11:28.303Z,96772.06
2022-10-31T01:14:01.216Z,96772.38
2022-10-31T01:16:34.028Z,96770.34
2022-10-31T01:19:06.950Z,96766.09
2022-10-31T01:21:41.157Z,96772.53
2022-10-31T01:24:16.508Z,96767.81
2022-10-31T01:26:49.323Z,96774.59
2022-10-31T01:29:22.349Z,96770.34
2022-10-31T01:31:55.215Z,96766.41
2022-10-31T01:34:28.625Z,96767.50
2022-10-31T01:37:02.947Z,96768.31
2022-10-31T01:39:35.980Z,96762.78
2022-10-31T01:42:17.907Z,96757.00
2022-10-31T01:44:53.966Z,96755.41
2022-10-31T01:47:34.747Z,96760.13
2022-10-31T01:50:14.893Z,96752.44
2022-10-31T01:52:51.292Z,96752.28
2022-10-31T01:55:31.623Z,96755.91
2022-10-31T01:58:09.553Z,96761.56
2022-10-31T02:00:47.375Z,96756.03
2022-10-31T02:03:22.565Z,96748.66
2022-10-31T02:05:57.744Z,96756.22
2022-10-31T02:08:35.032Z,96748.03
2022-10-31T02:11:09.566Z,96747.88
2022-10-31T02:13:43.230Z,96745.84
2022-10-31T02:16:16.388Z,96749.13
2022-10-31T02:18:49.504Z,96739.88
2022-10-31T02:21:31.803Z,96743.63
2022-10-31T02:24:36.158Z,96745.03
2022-10-31T02:27:19.140Z,96751.47
2022-10-31T02:30:13.953Z,96739.53
2022-10-31T02:33:16.805Z,96737.19
2022-10-31T02:36:12.747Z,96743.63
2022-10-31T02:38:56.325Z,96733.56
2022-10-31T02:41:38.701Z,96734.19
2022-10-31T02:44:17.887Z,96739.84
2022-10-31T02:46:52.322Z,96745.34
2022-10-31T02:49:33.384Z,96738.41
2022-10-31T02:52:16.407Z,96729.94
2022-10-31T02:54:50.350Z,96733.25
2022-10-31T02:57:27.636Z,96735.91
2022-10-31T03:00:04.762Z,96733.84
2022-10-31T03:03:03.573Z,96730.09
2022-10-31T03:05:52.065Z,96731.81
2022-10-31T03:08:32.109Z,96731.66
2022-10-31T03:11:07.268Z,96728.97
2022-10-31T03:13:46.394Z,96723.94
2022-10-31T03:16:25.905Z,96731.47
2022-10-31T03:19:02.358Z,96718.78
2022-10-31T03:21:42.056Z,96718.47
2022-10-31T03:24:16.790Z,96717.50
2022-10-31T03:26:58.766Z,96717.50
2022-10-31T03:29:35.870Z,96716.72
2022-10-31T03:32:11.990Z,96721.56
2022-10-31T03:34:47.616Z,96720.00
2022-10-31T03:37:25.762Z,96710.44
2022-10-31T03:40:01.427Z,96716.88
2022-10-31T03:42:36.932Z,96714.03
2022-10-31T03:45:15.668Z,96709.47
2022-10-31T03:47:51.561Z,96711.97
2022-10-31T03:50:29.553Z,96711.19
2022-10-31T03:53:10.274Z,96709.28
2022-10-31T03:55:50.425Z,96708.50
2022-10-31T03:58:28.547Z,96703.81
2022-10-31T04:01:04.730Z,96705.69
2022-10-31T04:03:40.335Z,96707.09
2022-10-31T04:06:17.719Z,96695.94
2022-10-31T04:08:56.895Z,96697.06
2022-10-31T04:11:33.680Z,96693.91
2022-10-31T04:14:07.943Z,96696.09
2022-10-31T04:16:43.480Z,96704.09
2022-10-31T04:19:16.958Z,96700.94
2022-10-31T04:21:49.775Z,96706.59
2022-10-31T04:24:24.778Z,96708.16
2022-10-31T04:26:57.777Z,96712.88
2022-10-31T04:29:30.828Z,96706.75
2022-10-31T04:32:03.916Z,96709.72
2022-10-31T04:34:36.806Z,96695.88
2022-10-31T04:37:09.707Z,96694.31
2022-10-31T04:39:43.881Z,96698.88
2022-10-31T04:42:17.118Z,96702.13
2022-10-31T04:44:50.009Z,96704.31
2022-10-31T04:47:23.442Z,96703.53
2022-10-31T04:49:56.360Z,96709.50
2022-10-31T04:52:29.783Z,96702.59
2022-10-31T04:55:04.471Z,96709.00
2022-10-31T04:57:42.991Z,96695.19
2022-10-31T05:00:18.431Z,96690.94
2022-10-31T05:02:54.722Z,96695.19
2022-10-31T05:05:30.750Z,96685.91
2022-10-31T05:08:03.623Z,96672.88
2022-10-31T05:10:45.681Z,96686.22
2022-10-31T05:13:18.673Z,96683.09
2022-10-31T05:15:51.825Z,96677.28
2022-10-31T05:18:25.088Z,96686.06
2022-10-31T05:20:58.190Z,96683.72
2022-10-31T05:23:31.184Z,96685.09
2022-10-31T05:26:08.044Z,96676.31
2022-10-31T05:28:40.915Z,96680.84
2022-10-31T05:31:13.830Z,96678.81
2022-10-31T05:33:46.587Z,96676.47
2022-10-31T05:36:21.156Z,96667.66
2022-10-31T05:38:53.993Z,96664.53
2022-10-31T05:41:29.860Z,96661.53
2022-10-31T05:44:03.303Z,96670.63
2022-10-31T05:46:36.191Z,96664.38
2022-10-31T05:49:09.291Z,96662.50
2022-10-31T05:51:42.475Z,96663.56
2022-10-31T05:54:16.121Z,96662.78
2022-10-31T05:56:50.692Z,96663.56
2022-10-31T05:59:23.566Z,96656.97
2022-10-31T06:01:56.650Z,96660.44
2022-10-31T06:04:29.579Z,96653.50
2022-10-31T06:07:02.511Z,96650.06
2022-10-31T06:09:35.381Z,96655.09
2022-10-31T06:12:10.702Z,96650.56
2022-10-31T06:14:43.546Z,96660.72
2022-10-31T06:17:16.893Z,96661.22
2022-10-31T06:22:28.163Z,96664.38
2022-10-31T06:25:01.401Z,96665.94
2022-10-31T06:27:35.736Z,96662.94
2022-10-31T06:30:10.048Z,96663.44
2022-10-31T06:32:42.904Z,96663.91
2022-10-31T06:35:15.948Z,96669.44
2022-10-31T06:37:56.274Z,96667.22
2022-10-31T06:40:29.130Z,96664.72
2022-10-31T06:43:03.956Z,96663.50
2022-10-31T06:45:36.831Z,96657.53
2022-10-31T06:48:18.475Z,96658.97
2022-10-31T06:50:53.667Z,96661.19
2022-10-31T06:53:30.835Z,96668.44
2022-10-31T06:56:03.672Z,96662.66
2022-10-31T06:58:41.426Z,96654.19
2022-10-31T07:01:14.952Z,96660.94
2022-10-31T07:03:49.288Z,96662.03
2022-10-31T07:06:25.443Z,96668.19
2022-10-31T07:09:01.422Z,96673.53
2022-10-31T07:11:35.339Z,96676.97
2022-10-31T07:14:12.205Z,96671.34
2022-10-31T07:16:46.303Z,96667.09
2022-10-31T07:19:26.580Z,96667.88
2022-10-31T07:21:59.838Z,96678.53
2022-10-31T07:24:33.221Z,96681.19
2022-10-31T07:27:07.804Z,96679.63
2022-10-31T07:29:44.049Z,96679.91
2022-10-31T07:32:18.205Z,96687.13
2022-10-31T07:34:53.368Z,96690.56
2022-10-31T07:37:30.455Z,96688.03
2022-10-31T07:40:06.113Z,96682.53
2022-10-31T07:42:39.591Z,96686.44
2022-10-31T07:45:16.695Z,96684.19
2022-10-31T07:47:51.410Z,96687.63
2022-10-31T07:50:27.111Z,96682.69
2022-10-31T07:53:03.988Z,96674.72
2022-10-31T07:55:38.232Z,96675.78
2022-10-31T07:58:13.078Z,96674.31
2022-10-31T08:00:52.765Z,96675.50
2022-10-31T08:03:26.058Z,96680.47
2022-10-31T08:05:59.202Z,96684.00
2022-10-31T08:08:36.021Z,96683.28
2022-10-31T08:11:11.570Z,96679.88
2022-10-31T08:13:44.770Z,96681.53
2022-10-31T08:16:21.907Z,96682.34
2022-10-31T08:18:56.564Z,96693.13
2022-10-31T08:21:30.212Z,96691.28
2022-10-31T08:24:03.149Z,96696.97
2022-10-31T08:26:36.350Z,96677.44
2022-10-31T08:29:09.788Z,96675.22
2022-10-31T08:31:44.720Z,96679.03
2022-10-31T08:34:17.709Z,96674.00
2022-10-31T08:36:51.944Z,96666.31
2022-10-31T08:39:24.886Z,96663.13
2022-10-31T08:41:59.019Z,96663.50
2022-10-31T08:44:31.967Z,96672.66
2022-10-31T08:47:06.632Z,96667.63
2022-10-31T08:49:39.515Z,96670.97
2022-10-31T08:52:14.591Z,96665.09
2022-10-31T08:54:49.560Z,96669.66
2022-10-31T08:57:23.187Z,96672.19
2022-10-31T08:59:56.320Z,96673.63
2022-10-31T09:02:34.097Z,96670.00
2022-10-31T09:05:07.681Z,96657.53
2022-10-31T09:07:46.104Z,96662.69
2022-10-31T09:10:19.191Z,96658.25
2022-10-31T09:13:01.152Z,96649.28
2022-10-31T09:15:37.706Z,96654.38
2022-10-31T09:18:13.256Z,96662.31
2022-10-31T09:20:49.934Z,96665.94
2022-10-31T09:23:24.568Z,96662.75
2022-10-31T09:26:03.125Z,96669.53
2022-10-31T09:28:36.920Z,96670.16
2022-10-31T09:31:10.046Z,96653.47
2022-10-31T09:33:49.773Z,96653.72
2022-10-31T09:36:25.021Z,96652.38
2022-10-31T09:38:57.979Z,96654.53
2022-10-31T09:41:44.955Z,96651.28
2022-10-31T09:44:48.076Z,96649.22
2022-10-31T09:47:40.809Z,96638.66
2022-10-31T09:50:21.361Z,96634.63
2022-10-31T09:53:06.209Z,96632.06
2022-10-31T09:55:45.750Z,96639.97
2022-10-31T09:58:22.297Z,96623.13
2022-10-31T10:01:01.255Z,96620.22
2022-10-31T10:03:39.555Z,96629.56
2022-10-31T10:06:16.977Z,96626.25
2022-10-31T10:08:50.480Z,96627.50
2022-10-31T10:11:42.233Z,96624.56
2022-10-31T10:14:25.211Z,96618.88
2022-10-31T10:17:15.541Z,96616.78
2022-10-31T10:20:05.687Z,96611.97
2022-10-31T10:23:00.990Z,96611.72
2022-10-31T10:25:40.555Z,96605.31
2022-10-31T10:28:30.039Z,96595.81
2022-10-31T10:31:09.101Z,96590.94
2022-10-31T10:33:46.918Z,96591.09
2022-10-31T10:36:26.563Z,96595.47
2022-10-31T10:39:04.978Z,96589.41
2022-10-31T10:41:46.323Z,96603.06
2022-10-31T10:44:20.802Z,96600.47
2022-10-31T10:47:19.175Z,96601.00
2022-10-31T10:49:53.237Z,96596.09
2022-10-31T10:52:42.083Z,96590.78
2022-10-31T10:55:32.107Z,96598.63
2022-10-31T10:58:08.246Z,96595.97
2022-10-31T11:00:43.792Z,96594.09
2022-10-31T11:03:17.552Z,96589.84
2022-10-31T11:05:53.376Z,96590.69
2022-10-31T11:08:27.682Z,96581.41
2022-10-31T11:11:05.745Z,96573.75
2022-10-31T11:13:39.064Z,96575.72
2022-10-31T11:16:14.569Z,96572.66
2022-10-31T11:18:49.115Z,96575.06
2022-10-31T11:21:26.003Z,96570.44
2022-10-31T11:24:05.355Z,96574.00
2022-10-31T11:26:41.395Z,96582.56
2022-10-31T11:29:17.893Z,96578.75
2022-10-31T11:31:54.573Z,96583.47
2022-10-31T11:34:33.082Z,96568.81
2022-10-31T11:37:15.559Z,96567.31
2022-10-31T11:39:54.791Z,96561.16
2022-10-31T11:42:32.237Z,96559.25
2022-10-31T11:45:14.858Z,96557.00
2022-10-31T11:47:55.293Z,96548.09
2022-10-31T11:50:37.663Z,96546.22
2022-10-31T11:53:17.153Z,96542.38
2022-10-31T11:56:02.225Z,96545.53
2022-10-31T11:58:36.434Z,96550.22
2022-10-31T12:01:26.073Z,96556.84
2022-10-31T12:04:08.506Z,96547.63
2022-10-31T12:06:43.393Z,96530.25
2022-10-31T12:09:22.554Z,96516.34
2022-10-31T12:12:11.244Z,96522.97
2022-10-31T12:14:57.891Z,96519.53
2022-10-31T12:17:38.509Z,96512.94
2022-10-31T12:20:23.610Z,96502.50
2022-10-31T12:23:05.250Z,96504.84
2022-10-31T12:25:46.817Z,96499.78
2022-10-31T12:28:46.394Z,96488.56
2022-10-31T12:31:45.658Z,96479.66
2022-10-31T12:35:03.681Z,96485.84
2022-10-31T12:37:55.889Z,96483.91
2022-10-31T12:40:46.187Z,96474.22
2022-10-31T12:43:31.205Z,96476.53
2022-10-31T12:46:06.770Z,96469.16
2022-10-31T12:49:10.909Z,96458.28
2022-10-31T12:51:53.937Z,96453.97
2022-10-31T12:54:48.548Z,96450.47
2022-10-31T12:57:32.593Z,96439.97
2022-10-31T13:00:12.967Z,96432.19
2022-10-31T13:02:51.229Z,96427.50
2022-10-31T13:05:33.135Z,96415.84
2022-10-31T13:08:10.866Z,96410.78
2022-10-31T13:10:48.607Z,96405.72
2022-10-31T13:13:27.492Z,96404.91
2022-10-31T13:16:07.059Z,96395.97
2022-10-31T13:18:45.322Z,96384.72
2022-10-31T13:21:24.975Z,96385.47
2022-10-31T13:24:01.022Z,96379.28
2022-10-31T13:26:39.604Z,96380.78
2022-10-31T13:29:20.947Z,96376.09
2022-10-31T13:31:54.131Z,96376.47
2022-10-31T13:34:31.739Z,96375.69
2022-10-31T13:37:16.856Z,96369.88
2022-10-31T13:40:14.238Z,96372.16
2022-10-31T13:43:05.376Z,96367.53
2022-10-31T13:45:38.233Z,96359.03
2022-10-31T13:48:22.407Z,96364.44
2022-10-31T13:51:00.692Z,96357.47
2022-10-31T13:53:45.864Z,96350.91
2022-10-31T13:56:24.616Z,96356.31
2022-10-31T13:59:20.548Z,96352.84
2022-10-31T14:01:56.994Z,96351.69
2022-10-31T14:04:38.406Z,96347.44
2022-10-31T14:07:13.602Z,96344.72
2022-10-31T14:09:56.985Z,96342.41
2022-10-31T14:12:34.200Z,96335.06
2022-10-31T14:15:17.666Z,96342.41
2022-10-31T14:17:53.724Z,96349.38
2022-10-31T14:20:35.070Z,96343.97
2022-10-31T14:23:33.708Z,96345.94
2022-10-31T14:26:21.197Z,96342.81
2022-10-31T14:28:55.432Z,96334.72
2022-10-31T14:31:38.633Z,96332.78
2022-10-31T14:34:25.308Z,96315.75
2022-10-31T14:37:12.874Z,96321.16
2022-10-31T14:39:57.000Z,96314.22
2022-10-31T14:42:44.070Z,96311.91
2022-10-31T14:45:41.906Z,96307.22
2022-10-31T14:48:32.955Z,96304.13
2022-10-31T14:51:14.235Z,96304.88
2022-10-31T14:53:50.286Z,96301.38
2022-10-31T14:56:26.732Z,96306.78
2022-10-31T14:59:04.047Z,96295.91
2022-10-31T15:01:40.876Z,96285.47
2022-10-31T15:04:23.740Z,96291.63
2022-10-31T15:07:04.359Z,96294.28
2022-10-31T15:09:38.981Z,96297.00
2022-10-31T15:12:26.537Z,96302.41
2022-10-31T15:15:13.696Z,96297.75
2022-10-31T15:18:07.426Z,96306.59
2022-10-31T15:20:47.072Z,96296.97
2022-10-31T15:23:25.911Z,96286.88
2022-10-31T15:26:02.907Z,96287.63
2022-10-31T15:28:36.025Z,96277.94
2022-10-31T15:31:17.515Z,96278.31
2022-10-31T15:33:53.288Z,96284.09
2022-10-31T15:36:29.812Z,96289.03
2022-10-31T15:39:03.758Z,96284.00
2022-10-31T15:41:41.658Z,96287.44
2022-10-31T15:44:17.612Z,96283.88
2022-10-31T15:46:56.807Z,96285.34
2022-10-31T15:49:36.148Z,96286.44
2022-10-31T15:52:14.463Z,96285.59
2022-10-31T15:54:52.662Z,96284.38
2022-10-31T15:57:27.510Z,96283.13
2022-10-31T16:00:00.728Z,96274.91
2022-10-31T16:02:33.605Z,96272.16
2022-10-31T16:05:20.384Z,96272.03
2022-10-31T16:07:56.239Z,96271.91
2022-10-31T16:10:30.031Z,96265.22
2022-10-31T16:13:04.482Z,96267.75
2022-10-31T16:15:37.456Z,96262.59
2022-10-31T16:18:14.317Z,96265.97
2022-10-31T16:20:53.851Z,96273.91
2022-10-31T16:23:28.842Z,96278.72
2022-10-31T16:26:07.803Z,96282.81
2022-10-31T16:28:42.333Z,96288.38
2022-10-31T16:31:19.863Z,96283.59
2022-10-31T16:34:05.866Z,96274.63
2022-10-31T16:36:42.736Z,96274.44
2022-10-31T16:39:15.598Z,96281.94
2022-10-31T16:41:54.716Z,96276.03
2022-10-31T16:44:28.907Z,96279.72
2022-10-31T16:47:15.312Z,96278.06
2022-10-31T16:49:51.242Z,96288.28
2022-10-31T16:52:25.946Z,96287.72
2022-10-31T16:54:59.275Z,96277.97
2022-10-31T16:57:34.459Z,96281.66
2022-10-31T17:00:08.305Z,96274.59
2022-10-31T17:02:43.759Z,96276.38
2022-10-31T17:05:22.867Z,96285.06
2022-10-31T17:07:59.151Z,96286.50
2022-10-31T17:10:32.560Z,96286.31
2022-10-31T17:13:09.691Z,96289.31
2022-10-31T17:15:46.534Z,96296.16
2022-10-31T17:18:24.393Z,96295.25
2022-10-31T17:21:02.631Z,96297.50
2022-10-31T17:23:38.466Z,96292.81
2022-10-31T17:26:15.370Z,96294.22
2022-10-31T17:28:49.057Z,96281.47
2022-10-31T17:31:24.670Z,96284.53
2022-10-31T17:34:02.250Z,96287.50
2022-10-31T17:36:40.866Z,96290.53
2022-10-31T17:39:16.384Z,96293.50
2022-10-31T17:41:52.825Z,96291.84
2022-10-31T17:44:27.698Z,96295.94
2022-10-31T17:47:01.288Z,96305.84
2022-10-31T17:49:34.381Z,96306.09
2022-10-31T17:52:07.949Z,96306.38
2022-10-31T17:54:42.822Z,96316.25
2022-10-31T17:57:16.106Z,96314.53
2022-10-31T17:59:48.992Z,96317.50
2022-10-31T18:02:22.059Z,96320.09
2022-10-31T18:04:57.498Z,96326.06
2022-10-31T18:07:30.411Z,96337.50
2022-10-31T18:10:05.063Z,96325.13
2022-10-31T18:12:38.156Z,96346.84
2022-10-31T18:15:11.766Z,96343.97
2022-10-31T18:17:45.773Z,96349.25
2022-10-31T18:20:18.946Z,96352.53
2022-10-31T18:22:52.113Z,96343.59
2022-10-31T18:25:31.750Z,96348.88
2022-10-31T18:28:07.229Z,96347.22
2022-10-31T18:30:41.905Z,96351.72
2022-10-31T18:33:16.101Z,96359.69
2022-10-31T18:35:48.942Z,96369.97
2022-10-31T18:38:24.594Z,96377.59
2022-10-31T18:41:01.383Z,96380.94
2022-10-31T18:43:37.419Z,96391.69
2022-10-31T18:46:17.903Z,96390.94
2022-10-31T18:48:51.370Z,96388.13
2022-10-31T18:51:24.871Z,96398.09
2022-10-31T18:53:59.617Z,96400.78
2022-10-31T18:56:33.838Z,96392.38
2022-10-31T18:59:06.898Z,96391.25
2022-10-31T19:01:41.988Z,96382.09
2022-10-31T19:04:16.235Z,96380.59
2022-10-31T19:06:49.337Z,96378.38
2022-10-31T19:09:22.281Z,96381.84
2022-10-31T19:11:56.760Z,96388.78
2022-10-31T19:14:30.675Z,96381.84
2022-10-31T19:17:03.619Z,96383.41
2022-10-31T19:19:38.729Z,96373.00
2022-10-31T19:22:11.598Z,96374.13
2022-10-31T19:24:44.474Z,96369.88
2022-10-31T19:27:21.226Z,96373.00
2022-10-31T19:29:54.212Z,96373.69
2022-10-31T19:32:27.026Z,96375.25
2022-10-31T19:35:00.329Z,96377.91
2022-10-31T19:37:33.515Z,96384.53
2022-10-31T19:40:10.333Z,96383.41
2022-10-31T19:42:44.562Z,96384.97
2022-10-31T19:45:17.909Z,96384.97
2022-10-31T19:47:50.839Z,96379.25
2022-10-31T19:50:24.059Z,96378.47
2022-10-31T19:52:57.072Z,96382.38
2022-10-31T19:55:32.379Z,96373.53
2022-10-31T19:58:06.602Z,96376.31
2022-10-31T20:00:40.285Z,96384.03
2022-10-31T20:03:15.143Z,96379.91
2022-10-31T20:05:50.391Z,96374.94
2022-10-31T20:08:23.500Z,96375.38
2022-10-31T20:10:57.853Z,96375.84
2022-10-31T20:13:33.755Z,96380.53
2022-10-31T20:16:09.572Z,96376.69
2022-10-31T20:18:43.160Z,96376.69
2022-10-31T20:21:18.343Z,96372.88
2022-10-31T20:23:55.548Z,96377.13
2022-10-31T20:26:30.113Z,96369.06
2022-10-31T20:29:07.341Z,96364.47
2022-10-31T20:31:42.153Z,96367.63
2022-10-31T20:34:15.355Z,96373.78
2022-10-31T20:36:49.614Z,96377.56
2022-10-31T20:39:23.530Z,96375.69
2022-10-31T20:41:56.567Z,96377.56
2022-10-31T20:44:30.886Z,96372.22
2022-10-31T20:47:04.304Z,96376.00
2022-10-31T20:49:37.257Z,96369.41
2022-10-31T20:52:10.367Z,96369.00
2022-10-31T20:54:46.945Z,96367.31
2022-10-31T20:57:19.828Z,96369.56
2022-10-31T20:59:59.177Z,96379.44
2022-10-31T21:02:33.456Z,96375.44
2022-10-31T21:05:08.909Z,96381.50
2022-10-31T21:07:43.280Z,96369.88
2022-10-31T21:10:16.491Z,96368.69
2022-10-31T21:12:49.496Z,96372.81
2022-10-31T21:15:23.908Z,96380.09
2022-10-31T21:17:58.094Z,96373.47
2022-10-31T21:20:30.972Z,96371.91
2022-10-31T21:23:04.714Z,96371.50
2022-10-31T21:25:40.091Z,96379.97
2022-10-31T21:28:13.813Z,96372.63
2022-10-31T21:30:50.973Z,96379.56
2022-10-31T21:33:23.967Z,96379.09
2022-10-31T21:35:56.850Z,96369.50
2022-10-31T21:38:30.304Z,96382.13
2022-10-31T21:41:06.800Z,96375.53
2022-10-31T21:43:41.816Z,96368.59
2022-10-31T21:46:21.099Z,96379.00
2022-10-31T21:48:55.342Z,96378.91
2022-10-31T21:51:29.708Z,96370.41
2022-10-31T21:54:20.749Z,96375.00
2022-10-31T21:56:53.620Z,96370.63
2022-10-31T21:59:26.520Z,96371.78
2022-10-31T22:02:03.278Z,96361.72
2022-10-31T22:04:36.467Z,96356.25
2022-10-31T22:07:10.773Z,96356.16
2022-10-31T22:09:47.472Z,96353.81
2022-10-31T22:12:24.916Z,96359.44
2022-10-31T22:14:57.769Z,96370.50
2022-10-31T22:17:32.238Z,96368.16
2022-10-31T22:20:05.713Z,96367.25
2022-10-31T22:22:38.549Z,96369.50
2022-10-31T22:25:11.464Z,96359.44
2022-10-31T22:27:44.360Z,96365.94
2022-10-31T22:30:17.267Z,96360.91
2022-10-31T22:32:51.635Z,96365.81
2022-10-31T22:35:24.588Z,96359.25
2022-10-31T22:37:57.594Z,96357.56
2022-10-31T22:40:30.518Z,96367.84
2022-10-31T22:43:03.738Z,96360.47
2022-10-31T22:45:37.145Z,96364.59
2022-10-31T22:48:11.975Z,96368.41
2022-10-31T22:50:44.875Z,96375.13
2022-10-31T22:53:17.691Z,96385.06
2022-10-31T22:55:51.508Z,96388.75
2022-10-31T22:58:24.609Z,96386.72
2022-10-31T23:00:57.753Z,96384.69
2022-10-31T23:03:32.080Z,96392.31
2022-10-31T23:06:06.770Z,96384.59
2022-10-31T23:08:39.947Z,96382.25
2022-10-31T23:11:21.120Z,96391.06
2022-10-31T23:14:16.231Z,96383.38
2022-10-31T23:16:53.087Z,96377.56
2022-10-31T23:19:29.128Z,96379.13
2022-10-31T23:22:05.013Z,96372.53
2022-10-31T23:24:40.497Z,96380.56
2022-10-31T23:27:14.718Z,96377.09
2022-10-31T23:29:50.066Z,96374.78
2022-10-31T23:32:39.984Z,96362.94
2022-10-31T23:35:16.404Z,96364.84
2022-10-31T23:37:50.044Z,96363.28
2022-10-31T23:40:27.413Z,96369.06
2022-10-31T23:43:01.665Z,96376.78
2022-10-31T23:45:34.866Z,96374.88
2022-10-31T23:48:07.949Z,96371.88
2022-10-31T23:50:42.285Z,96372.31
2022-10-31T23:53:15.511Z,96368.94
2022-10-31T23:55:48.356Z,96370.09
2022-10-31T23:58:21.284Z,96381.22
